Monroe County Airport
KBMG : now visible

Aeroporto :











RITROVATECI SU...

 
LOGIN :

Iscrizione | Disclaimer

   EN    FR    IT 

 









Sommario :    VFR   VFR Marginale   IFR   IFR Intensivo   IFR Molto Intensivo
Visibilità : 
Base nubi : 
>= 8 km
>= 3000ft
5 / 8 km
1000 / 3000 ft
1500m / 5 km
500 / 1000 ft
800 / 1500m
200 / 500 ft
< 800m
< 200 ft
Simboli :   Temporali  Nebbia  Neve Forte  Precipitazioni Forti  Vento > 20 kt






- Altitudine del aeroporto : 846 ft
- Codice IATA : BMG


KBMG - Monroe County

ULTIMO METAR :
  • 180553Z AUTO 00000KT 10SM CLR 02/01 A3004 RMK AO2 SLP175 T00170006 10078 20017 53002

METARs OBSOLETI :
  • 180453Z AUTO 00000KT 10SM CLR 03/02 A3003 RMK AO2 SLP172 T00280017 401500028
  • 180353Z AUTO 00000KT 10SM CLR 03/02 A3004 RMK AO2 SLP173 T00330017

TAF KBMG
Valido dal 18 a 06 ore il 19 a 06 ore UTC


180520Z 1806/1906 00000KT P6SM SKC AMD LTD TO CLD VIS AND WIND TIL 181300



MetMap, La meteo Aeronautica in un colpo d'occhio ! - Copyright ORBIFLY Dicembre 2007 - Disclaimer

ORBIFLY MET'MAP TEAM :

Programmazione e sviluppo : Alexandra Zaïnal
Concezione e sviluppo : Baudouin d'Aumeries
Co-Programmazione e sviluppo : Marc-Olivier Méhu
Supporto tecnico e logistico : Manuel Goepfert
Aiuto per la traduzione : Arnaldo La Scala

Contatto : metmap@orbifly.com




FONTI E CREDITI :

   NOAA       Earth
Advisory